sensor_id;sensor_type;location;lat;lon;timestamp;pressure;altitude;pressure_sealevel;temperature;humidity
13015;BME280;6573;57.696;11.950;2022-11-20T00:01:32;100764.56;;;2.09;100.00
13015;BME280;6573;57.696;11.950;2022-11-20T00:04:01;100764.78;;;2.15;100.00
13015;BME280;6573;57.696;11.950;2022-11-20T00:06:30;100759.59;;;2.15;100.00
13015;BME280;6573;57.696;11.950;2022-11-20T00:09:00;100767.41;;;2.17;100.00
13015;BME280;6573;57.696;11.950;2022-11-20T00:11:30;100763.09;;;2.17;100.00
13015;BME280;6573;57.696;11.950;2022-11-20T00:14:00;100773.47;;;2.17;100.00
13015;BME280;6573;57.696;11.950;2022-11-20T00:16:30;100769.88;;;2.12;100.00
13015;BME280;6573;57.696;11.950;2022-11-20T00:18:59;100776.91;;;2.16;100.00
13015;BME280;6573;57.696;11.950;2022-11-20T00:21:29;100765.56;;;2.13;100.00
13015;BME280;6573;57.696;11.950;2022-11-20T00:23:58;100743.81;;;2.09;100.00
13015;BME280;6573;57.696;11.950;2022-11-20T00:26:27;100766.72;;;2.22;100.00
13015;BME280;6573;57.696;11.950;2022-11-20T00:28:57;100763.00;;;2.14;100.00
13015;BME280;6573;57.696;11.950;2022-11-20T00:31:26;100768.09;;;2.11;100.00
13015;BME280;6573;57.696;11.950;2022-11-20T00:33:54;100754.75;;;1.99;100.00
13015;BME280;6573;57.696;11.950;2022-11-20T00:36:24;100771.34;;;2.04;100.00
13015;BME280;6573;57.696;11.950;2022-11-20T00:38:55;100767.94;;;2.05;100.00
13015;BME280;6573;57.696;11.950;2022-11-20T00:41:25;100773.00;;;2.02;100.00
13015;BME280;6573;57.696;11.950;2022-11-20T00:43:54;100777.38;;;2.03;100.00
13015;BME280;6573;57.696;11.950;2022-11-20T00:46:24;100777.28;;;2.00;100.00
13015;BME280;6573;57.696;11.950;2022-11-20T00:48:53;100781.44;;;1.95;100.00
13015;BME280;6573;57.696;11.950;2022-11-20T00:51:23;100780.59;;;1.96;100.00
13015;BME280;6573;57.696;11.950;2022-11-20T00:53:56;100778.06;;;1.98;100.00
13015;BME280;6573;57.696;11.950;2022-11-20T00:56:26;100782.38;;;1.97;100.00
13015;BME280;6573;57.696;11.950;2022-11-20T00:58:55;100773.66;;;1.95;100.00
13015;BME280;6573;57.696;11.950;2022-11-20T01:01:24;100783.13;;;1.93;100.00
13015;BME280;6573;57.696;11.950;2022-11-20T01:03:54;100778.81;;;1.93;100.00
13015;BME280;6573;57.696;11.950;2022-11-20T01:06:24;100780.59;;;1.96;100.00
13015;BME280;6573;57.696;11.950;2022-11-20T01:08:56;100787.41;;;1.92;100.00
13015;BME280;6573;57.696;11.950;2022-11-20T01:11:27;100791.81;;;1.95;100.00
13015;BME280;6573;57.696;11.950;2022-11-20T01:13:56;100802.19;;;1.95;100.00
13015;BME280;6573;57.696;11.950;2022-11-20T01:16:27;100803.75;;;1.90;100.00
13015;BME280;6573;57.696;11.950;2022-11-20T01:18:57;100807.19;;;1.89;100.00
13015;BME280;6573;57.696;11.950;2022-11-20T01:21:28;100798.69;;;1.93;100.00
13015;BME280;6573;57.696;11.950;2022-11-20T01:23:58;100804.59;;;1.89;100.00
13015;BME280;6573;57.696;11.950;2022-11-20T01:26:28;100803.66;;;1.87;100.00
13015;BME280;6573;57.696;11.950;2022-11-20T01:28:57;100803.66;;;1.87;100.00
13015;BME280;6573;57.696;11.950;2022-11-20T01:31:27;100803.66;;;1.87;100.00
13015;BME280;6573;57.696;11.950;2022-11-20T01:33:57;100794.81;;;1.80;100.00
13015;BME280;6573;57.696;11.950;2022-11-20T01:36:27;100781.75;;;1.77;100.00
13015;BME280;6573;57.696;11.950;2022-11-20T01:38:59;100788.00;;;1.84;100.00
13015;BME280;6573;57.696;11.950;2022-11-20T01:41:30;100794.97;;;1.85;100.00
13015;BME280;6573;57.696;11.950;2022-11-20T01:44:17;100777.56;;;1.81;100.00
13015;BME280;6573;57.696;11.950;2022-11-20T01:46:52;100784.47;;;1.82;100.00
13015;BME280;6573;57.696;11.950;2022-11-20T01:49:27;100762.53;;;1.71;100.00
13015;BME280;6573;57.696;11.950;2022-11-20T01:52:02;100762.81;;;1.80;100.00
13015;BME280;6573;57.696;11.950;2022-11-20T01:54:40;100765.13;;;1.71;100.00
13015;BME280;6573;57.696;11.950;2022-11-20T01:57:12;100758.31;;;1.74;100.00
13015;BME280;6573;57.696;11.950;2022-11-20T01:59:44;100748.69;;;1.70;100.00
13015;BME280;6573;57.696;11.950;2022-11-20T02:02:13;100760.09;;;1.75;100.00
13015;BME280;6573;57.696;11.950;2022-11-20T02:04:42;100748.78;;;1.73;100.00
13015;BME280;6573;57.696;11.950;2022-11-20T02:07:10;100744.47;;;1.74;100.00
13015;BME280;6573;57.696;11.950;2022-11-20T02:09:41;100735.75;;;1.72;100.00
13015;BME280;6573;57.696;11.950;2022-11-20T02:12:09;100728.91;;;1.74;100.00
13015;BME280;6573;57.696;11.950;2022-11-20T02:14:58;100710.03;;;1.78;100.00
13015;BME280;6573;57.696;11.950;2022-11-20T02:17:25;100723.03;;;1.79;100.00
13015;BME280;6573;57.696;11.950;2022-11-20T02:19:54;100720.41;;;1.78;100.00
13015;BME280;6573;57.696;11.950;2022-11-20T02:22:26;100712.63;;;1.78;100.00
13015;BME280;6573;57.696;11.950;2022-11-20T02:24:58;100711.78;;;1.79;100.00
13015;BME280;6573;57.696;11.950;2022-11-20T02:27:28;100701.22;;;1.73;100.00
13015;BME280;6573;57.696;11.950;2022-11-20T02:29:59;100707.47;;;1.79;100.00
13015;BME280;6573;57.696;11.950;2022-11-20T02:32:31;100712.38;;;1.70;100.00
13015;BME280;6573;57.696;11.950;2022-11-20T02:35:07;100704.66;;;1.72;100.00
13015;BME280;6573;57.696;11.950;2022-11-20T02:37:37;100705.88;;;1.83;100.00
13015;BME280;6573;57.696;11.950;2022-11-20T02:40:09;100701.59;;;1.85;100.00
13015;BME280;6573;57.696;11.950;2022-11-20T02:42:37;100706.09;;;1.90;100.00
13015;BME280;6573;57.696;11.950;2022-11-20T02:45:06;100703.41;;;1.87;100.00
13015;BME280;6573;57.696;11.950;2022-11-20T02:47:35;100686.13;;;1.88;100.00
13015;BME280;6573;57.696;11.950;2022-11-20T02:50:04;100694.19;;;1.97;100.00
13015;BME280;6573;57.696;11.950;2022-11-20T02:52:32;100689.81;;;1.96;100.00
13015;BME280;6573;57.696;11.950;2022-11-20T02:55:01;100695.09;;;1.99;100.00
13015;BME280;6573;57.696;11.950;2022-11-20T02:57:31;100661.72;;;1.81;100.00
13015;BME280;6573;57.696;11.950;2022-11-20T02:59:59;100683.63;;;1.91;100.00
13015;BME280;6573;57.696;11.950;2022-11-20T03:02:29;100660.66;;;1.75;100.00
13015;BME280;6573;57.696;11.950;2022-11-20T03:04:58;100678.34;;;1.88;100.00
13015;BME280;6573;57.696;11.950;2022-11-20T03:07:26;100681.06;;;1.91;100.00
13015;BME280;6573;57.696;11.950;2022-11-20T03:09:54;100677.44;;;1.86;100.00
13015;BME280;6573;57.696;11.950;2022-11-20T03:12:22;100685.25;;;1.87;100.00
13015;BME280;6573;57.696;11.950;2022-11-20T03:14:52;100687.81;;;1.86;100.00
13015;BME280;6573;57.696;11.950;2022-11-20T03:17:20;100673.81;;;1.81;100.00
13015;BME280;6573;57.696;11.950;2022-11-20T03:19:48;100665.28;;;1.85;100.00
13015;BME280;6573;57.696;11.950;2022-11-20T03:22:16;100669.00;;;1.93;100.00
13015;BME280;6573;57.696;11.950;2022-11-20T03:24:44;100661.22;;;1.93;100.00
13015;BME280;6573;57.696;11.950;2022-11-20T03:27:13;100667.31;;;1.95;100.00
13015;BME280;6573;57.696;11.950;2022-11-20T03:29:41;100667.97;;;1.88;100.00
13015;BME280;6573;57.696;11.950;2022-11-20T03:32:10;100673.63;;;1.75;100.00
13015;BME280;6573;57.696;11.950;2022-11-20T03:34:39;100652.97;;;1.78;100.00
13015;BME280;6573;57.696;11.950;2022-11-20T03:37:07;100651.22;;;1.77;100.00
13015;BME280;6573;57.696;11.950;2022-11-20T03:39:35;100672.88;;;1.79;100.00
13015;BME280;6573;57.696;11.950;2022-11-20T03:42:04;100667.44;;;1.70;100.00
13015;BME280;6573;57.696;11.950;2022-11-20T03:44:52;100670.38;;;1.82;100.00
13015;BME280;6573;57.696;11.950;2022-11-20T03:47:23;100664.03;;;1.72;100.00
13015;BME280;6573;57.696;11.950;2022-11-20T03:49:51;100661.47;;;1.74;100.00
13015;BME280;6573;57.696;11.950;2022-11-20T03:52:20;100659.84;;;1.76;100.00
13015;BME280;6573;57.696;11.950;2022-11-20T03:54:48;100662.34;;;1.73;100.00
13015;BME280;6573;57.696;11.950;2022-11-20T03:57:16;100661.59;;;1.77;100.00
13015;BME280;6573;57.696;11.950;2022-11-20T03:59:48;100554.13;;;1.09;100.00
13015;BME280;6573;57.696;11.950;2022-11-20T04:03:00;100671.78;;;1.71;100.00
13015;BME280;6573;57.696;11.950;2022-11-20T04:06:02;100638.66;;;1.61;100.00
13015;BME280;6573;57.696;11.950;2022-11-20T04:09:00;100606.31;;;1.50;100.00
13015;BME280;6573;57.696;11.950;2022-11-20T04:11:58;100549.16;;;1.15;100.00
13015;BME280;6573;57.696;11.950;2022-11-20T04:14:42;100600.34;;;1.52;100.00
13015;BME280;6573;57.696;11.950;2022-11-20T04:17:27;100564.38;;;1.33;100.00
13015;BME280;6573;57.696;11.950;2022-11-20T04:20:44;100575.41;;;1.27;100.00
13015;BME280;6573;57.696;11.950;2022-11-20T04:23:34;100510.66;;;0.99;100.00
13015;BME280;6573;57.696;11.950;2022-11-20T04:26:24;100630.22;;;1.68;100.00
13015;BME280;6573;57.696;11.950;2022-11-20T04:28:53;100635.56;;;1.74;100.00
13015;BME280;6573;57.696;11.950;2022-11-20T04:31:24;100626.69;;;1.66;100.00
13015;BME280;6573;57.696;11.950;2022-11-20T04:33:53;100638.91;;;1.70;100.00
13015;BME280;6573;57.696;11.950;2022-11-20T04:36:24;100616.19;;;1.61;100.00
13015;BME280;6573;57.696;11.950;2022-11-20T04:38:55;100630.00;;;1.62;100.00
13015;BME280;6573;57.696;11.950;2022-11-20T04:41:25;100636.88;;;1.60;100.00
13015;BME280;6573;57.696;11.950;2022-11-20T04:43:56;100614.09;;;1.50;100.00
13015;BME280;6573;57.696;11.950;2022-11-20T04:46:27;100619.59;;;1.59;100.00
13015;BME280;6573;57.696;11.950;2022-11-20T04:48:56;100628.34;;;1.64;100.00
13015;BME280;6573;57.696;11.950;2022-11-20T04:51:26;100627.56;;;1.66;100.00
13015;BME280;6573;57.696;11.950;2022-11-20T04:53:54;100608.44;;;1.63;100.00
13015;BME280;6573;57.696;11.950;2022-11-20T04:56:22;100603.94;;;1.56;100.00
13015;BME280;6573;57.696;11.950;2022-11-20T04:58:51;100623.25;;;1.67;100.00
13015;BME280;6573;57.696;11.950;2022-11-20T05:01:21;100616.34;;;1.66;100.00
13015;BME280;6573;57.696;11.950;2022-11-20T05:03:50;100604.28;;;1.68;100.00
13015;BME280;6573;57.696;11.950;2022-11-20T05:06:20;100613.78;;;1.67;100.00
13015;BME280;6573;57.696;11.950;2022-11-20T05:08:50;100617.00;;;1.59;100.00
13015;BME280;6573;57.696;11.950;2022-11-20T05:11:20;100602.84;;;1.49;100.00
13015;BME280;6573;57.696;11.950;2022-11-20T05:13:49;100607.34;;;1.55;100.00
13015;BME280;6573;57.696;11.950;2022-11-20T05:16:20;100582.84;;;1.44;100.00
13015;BME280;6573;57.696;11.950;2022-11-20T05:18:49;100600.47;;;1.57;100.00
13015;BME280;6573;57.696;11.950;2022-11-20T05:21:18;100595.13;;;1.51;100.00
13015;BME280;6573;57.696;11.950;2022-11-20T05:23:47;100590.97;;;1.56;100.00
13015;BME280;6573;57.696;11.950;2022-11-20T05:26:18;100581.94;;;1.43;100.00
13015;BME280;6573;57.696;11.950;2022-11-20T05:28:48;100586.50;;;1.52;100.00
13015;BME280;6573;57.696;11.950;2022-11-20T05:31:18;100593.66;;;1.59;100.00
13015;BME280;6573;57.696;11.950;2022-11-20T05:33:55;100590.97;;;1.56;100.00
13015;BME280;6573;57.696;11.950;2022-11-20T05:36:24;100580.09;;;1.69;100.00
13015;BME280;6573;57.696;11.950;2022-11-20T05:38:52;100574.91;;;1.69;100.00
13015;BME280;6573;57.696;11.950;2022-11-20T05:41:28;100574.72;;;1.61;100.00
13015;BME280;6573;57.696;11.950;2022-11-20T05:43:58;100579.28;;;1.70;100.00
13015;BME280;6573;57.696;11.950;2022-11-20T05:46:26;100577.50;;;1.69;100.00
13015;BME280;6573;57.696;11.950;2022-11-20T05:48:55;100570.63;;;1.69;100.00
13015;BME280;6573;57.696;11.950;2022-11-20T05:51:25;100569.81;;;1.72;100.00
13015;BME280;6573;57.696;11.950;2022-11-20T05:53:56;100567.81;;;1.62;100.00
13015;BME280;6573;57.696;11.950;2022-11-20T05:56:24;100583.69;;;1.74;100.00
13015;BME280;6573;57.696;11.950;2022-11-20T05:58:54;100582.75;;;1.70;100.00
13015;BME280;6573;57.696;11.950;2022-11-20T06:01:25;100578.53;;;1.74;100.00
13015;BME280;6573;57.696;11.950;2022-11-20T06:03:55;100578.53;;;1.74;100.00
13015;BME280;6573;57.696;11.950;2022-11-20T06:06:23;100569.03;;;1.74;100.00
13015;BME280;6573;57.696;11.950;2022-11-20T06:08:51;100584.28;;;1.64;100.00
13015;BME280;6573;57.696;11.950;2022-11-20T06:11:20;100586.72;;;1.58;100.00
13015;BME280;6573;57.696;11.950;2022-11-20T06:13:48;100567.75;;;1.59;100.00
13015;BME280;6573;57.696;11.950;2022-11-20T06:16:19;100578.09;;;1.59;100.00
13015;BME280;6573;57.696;11.950;2022-11-20T06:18:48;100568.78;;;1.65;100.00
13015;BME280;6573;57.696;11.950;2022-11-20T06:21:19;100548.50;;;1.51;100.00
13015;BME280;6573;57.696;11.950;2022-11-20T06:23:48;100567.78;;;1.60;100.00
13015;BME280;6573;57.696;11.950;2022-11-20T06:26:18;100562.38;;;1.53;100.00
13015;BME280;6573;57.696;11.950;2022-11-20T06:28:47;100518.91;;;1.44;100.00
13015;BME280;6573;57.696;11.950;2022-11-20T06:31:19;100554.03;;;1.63;100.00
13015;BME280;6573;57.696;11.950;2022-11-20T06:33:49;100555.75;;;1.64;100.00
13015;BME280;6573;57.696;11.950;2022-11-20T06:36:19;100559.19;;;1.63;100.00
13015;BME280;6573;57.696;11.950;2022-11-20T06:38:47;100549.66;;;1.62;100.00
13015;BME280;6573;57.696;11.950;2022-11-20T06:41:18;100547.19;;;1.66;100.00
13015;BME280;6573;57.696;11.950;2022-11-20T06:43:47;100529.84;;;1.64;100.00
13015;BME280;6573;57.696;11.950;2022-11-20T06:46:17;100540.56;;;1.76;100.00
13015;BME280;6573;57.696;11.950;2022-11-20T06:48:47;100542.22;;;1.74;100.00
13015;BME280;6573;57.696;11.950;2022-11-20T06:51:16;100542.22;;;1.74;100.00
13015;BME280;6573;57.696;11.950;2022-11-20T06:53:44;100535.28;;;1.73;100.00
13015;BME280;6573;57.696;11.950;2022-11-20T06:56:13;100530.13;;;1.73;100.00
13015;BME280;6573;57.696;11.950;2022-11-20T06:58:41;100533.81;;;1.81;100.00
13015;BME280;6573;57.696;11.950;2022-11-20T07:01:11;100544.19;;;1.81;100.00
13015;BME280;6573;57.696;11.950;2022-11-20T07:03:41;100527.63;;;1.77;100.00
13015;BME280;6573;57.696;11.950;2022-11-20T07:06:11;100535.63;;;1.85;100.00
13015;BME280;6573;57.696;11.950;2022-11-20T07:08:39;100515.88;;;1.90;100.00
13015;BME280;6573;57.696;11.950;2022-11-20T07:11:07;100523.50;;;1.84;100.00
13015;BME280;6573;57.696;11.950;2022-11-20T07:13:38;100515.47;;;1.75;100.00
13015;BME280;6573;57.696;11.950;2022-11-20T07:16:07;100501.69;;;1.76;100.00
13015;BME280;6573;57.696;11.950;2022-11-20T07:18:36;100528.63;;;1.81;100.00
13015;BME280;6573;57.696;11.950;2022-11-20T07:21:06;100528.75;;;1.87;100.00
13015;BME280;6573;57.696;11.950;2022-11-20T07:23:37;100514.69;;;1.79;100.00
13015;BME280;6573;57.696;11.950;2022-11-20T07:26:06;100520.16;;;1.88;100.00
13015;BME280;6573;57.696;11.950;2022-11-20T07:28:35;100518.31;;;1.84;100.00
13015;BME280;6573;57.696;11.950;2022-11-20T07:31:04;100519.47;;;1.95;100.00
13015;BME280;6573;57.696;11.950;2022-11-20T07:33:34;100520.06;;;1.85;100.00
13015;BME280;6573;57.696;11.950;2022-11-20T07:36:03;100515.78;;;1.85;100.00
13015;BME280;6573;57.696;11.950;2022-11-20T07:38:31;100535.97;;;1.97;100.00
13015;BME280;6573;57.696;11.950;2022-11-20T07:41:01;100544.50;;;1.93;100.00
13015;BME280;6573;57.696;11.950;2022-11-20T07:43:30;100536.75;;;1.94;100.00
13015;BME280;6573;57.696;11.950;2022-11-20T07:46:08;100504.50;;;1.85;100.00
13015;BME280;6573;57.696;11.950;2022-11-20T07:48:36;100528.94;;;1.93;100.00
13015;BME280;6573;57.696;11.950;2022-11-20T07:51:04;100529.09;;;1.99;100.00
13015;BME280;6573;57.696;11.950;2022-11-20T07:53:33;100515.22;;;1.97;100.00
13015;BME280;6573;57.696;11.950;2022-11-20T07:56:02;100519.81;;;2.07;100.00
13015;BME280;6573;57.696;11.950;2022-11-20T07:58:33;100524.16;;;2.08;100.00
13015;BME280;6573;57.696;11.950;2022-11-20T08:01:05;100506.34;;;1.89;100.00
13015;BME280;6573;57.696;11.950;2022-11-20T08:03:33;100511.84;;;2.01;100.00
13015;BME280;6573;57.696;11.950;2022-11-20T08:06:05;100528.94;;;1.93;100.00
13015;BME280;6573;57.696;11.950;2022-11-20T08:08:33;100526.63;;;2.04;100.00
13015;BME280;6573;57.696;11.950;2022-11-20T08:11:09;100522.28;;;2.03;100.00
13015;BME280;6573;57.696;11.950;2022-11-20T08:13:55;100520.31;;;1.94;100.00
13015;BME280;6573;57.696;11.950;2022-11-20T08:16:44;100521.50;;;2.07;100.00
13015;BME280;6573;57.696;11.950;2022-11-20T08:19:14;100515.22;;;1.97;100.00
13015;BME280;6573;57.696;11.950;2022-11-20T08:21:43;100529.00;;;1.96;100.00
13015;BME280;6573;57.696;11.950;2022-11-20T08:24:12;100495.91;;;1.86;100.00
13015;BME280;6573;57.696;11.950;2022-11-20T08:26:41;100504.91;;;2.00;100.00
13015;BME280;6573;57.696;11.950;2022-11-20T08:29:10;100507.53;;;2.02;100.00
13015;BME280;6573;57.696;11.950;2022-11-20T08:31:38;100499.88;;;2.06;100.00
13015;BME280;6573;57.696;11.950;2022-11-20T08:34:06;100499.88;;;2.06;100.00
13015;BME280;6573;57.696;11.950;2022-11-20T08:36:37;100489.59;;;2.09;100.00
13015;BME280;6573;57.696;11.950;2022-11-20T08:39:12;100488.50;;;2.01;100.00
13015;BME280;6573;57.696;11.950;2022-11-20T08:41:42;100480.97;;;2.10;100.00
13015;BME280;6573;57.696;11.950;2022-11-20T08:44:10;100480.13;;;2.11;100.00
13015;BME280;6573;57.696;11.950;2022-11-20T08:46:40;100484.56;;;2.15;100.00
13015;BME280;6573;57.696;11.950;2022-11-20T08:49:11;100478.69;;;2.22;100.00
13015;BME280;6573;57.696;11.950;2022-11-20T08:51:40;100459.38;;;2.11;100.00
13015;BME280;6573;57.696;11.950;2022-11-20T08:54:09;100480.56;;;2.28;100.00
13015;BME280;6573;57.696;11.950;2022-11-20T08:56:38;100486.59;;;2.28;100.00
13015;BME280;6573;57.696;11.950;2022-11-20T08:59:08;100483.09;;;2.26;100.00
13015;BME280;6573;57.696;11.950;2022-11-20T09:01:56;100479.91;;;2.36;100.00
13015;BME280;6573;57.696;11.950;2022-11-20T09:04:25;100479.81;;;2.33;100.00
13015;BME280;6573;57.696;11.950;2022-11-20T09:06:53;100483.41;;;2.38;100.00
13015;BME280;6573;57.696;11.950;2022-11-20T09:09:22;100490.34;;;2.39;100.00
13015;BME280;6573;57.696;11.950;2022-11-20T09:11:50;100488.59;;;2.38;100.00
13015;BME280;6573;57.696;11.950;2022-11-20T09:14:20;100480.06;;;2.42;100.00
13015;BME280;6573;57.696;11.950;2022-11-20T09:16:51;100490.44;;;2.42;100.00
13015;BME280;6573;57.696;11.950;2022-11-20T09:19:19;100476.75;;;2.49;100.00
13015;BME280;6573;57.696;11.950;2022-11-20T09:22:02;100460.75;;;2.31;100.00
13015;BME280;6573;57.696;11.950;2022-11-20T09:24:31;100483.78;;;2.53;100.00
13015;BME280;6573;57.696;11.950;2022-11-20T09:27:02;100489.63;;;2.45;100.00
13015;BME280;6573;57.696;11.950;2022-11-20T09:29:32;100480.19;;;2.48;100.00
13015;BME280;6573;57.696;11.950;2022-11-20T09:32:00;100469.88;;;2.51;100.00
13015;BME280;6573;57.696;11.950;2022-11-20T09:34:28;100466.53;;;2.55;100.00
13015;BME280;6573;57.696;11.950;2022-11-20T09:36:57;100463.41;;;2.70;100.00
13015;BME280;6573;57.696;11.950;2022-11-20T09:39:31;100464.25;;;2.69;100.00
13015;BME280;6573;57.696;11.950;2022-11-20T09:42:27;100465.06;;;2.67;100.00
13015;BME280;6573;57.696;11.950;2022-11-20T09:45:12;100451.09;;;2.61;100.00
13015;BME280;6573;57.696;11.950;2022-11-20T09:47:52;100451.28;;;2.71;100.00
13015;BME280;6573;57.696;11.950;2022-11-20T09:50:31;100443.44;;;2.68;100.00
13015;BME280;6573;57.696;11.950;2022-11-20T09:53:12;100417.97;;;2.51;100.00
13015;BME280;6573;57.696;11.950;2022-11-20T09:55:41;100445.47;;;2.81;100.00
13015;BME280;6573;57.696;11.950;2022-11-20T09:58:16;100420.81;;;2.62;100.00
13015;BME280;6573;57.696;11.950;2022-11-20T10:00:51;100447.84;;;2.72;100.00
13015;BME280;6573;57.696;11.950;2022-11-20T10:03:33;100444.28;;;2.67;100.00
13015;BME280;6573;57.696;11.950;2022-11-20T10:06:05;100447.84;;;2.72;100.00
13015;BME280;6573;57.696;11.950;2022-11-20T10:08:41;100449.63;;;2.73;100.00
13015;BME280;6573;57.696;11.950;2022-11-20T10:11:18;100416.69;;;2.72;100.00
13015;BME280;6573;57.696;11.950;2022-11-20T10:13:57;100448.03;;;2.79;100.00
13015;BME280;6573;57.696;11.950;2022-11-20T10:16:40;100433.97;;;2.70;100.00
13015;BME280;6573;57.696;11.950;2022-11-20T10:19:22;100439.16;;;2.70;100.00
13015;BME280;6573;57.696;11.950;2022-11-20T10:21:58;100446.03;;;2.68;100.00
13015;BME280;6573;57.696;11.950;2022-11-20T10:24:44;100449.31;;;2.60;100.00
13015;BME280;6573;57.696;11.950;2022-11-20T10:27:34;100431.16;;;2.60;100.00
13015;BME280;6573;57.696;11.950;2022-11-20T10:30:09;100435.69;;;2.71;100.00
13015;BME280;6573;57.696;11.950;2022-11-20T10:32:42;100432.34;;;2.75;100.00
13015;BME280;6573;57.696;11.950;2022-11-20T10:35:20;100428.91;;;2.76;100.00
13015;BME280;6573;57.696;11.950;2022-11-20T10:37:51;100399.44;;;2.74;100.00
13015;BME280;6573;57.696;11.950;2022-11-20T10:40:29;100389.81;;;2.70;100.00
13015;BME280;6573;57.696;11.950;2022-11-20T10:43:07;100411.91;;;2.90;100.00
13015;BME280;6573;57.696;11.950;2022-11-20T10:45:44;100381.88;;;2.63;100.00
13015;BME280;6573;57.696;11.950;2022-11-20T10:48:20;100408.25;;;2.82;100.00
13015;BME280;6573;57.696;11.950;2022-11-20T10:51:03;100395.22;;;2.79;100.00
13015;BME280;6573;57.696;11.950;2022-11-20T10:53:56;100401.38;;;2.84;100.00
13015;BME280;6573;57.696;11.950;2022-11-20T10:56:33;100405.91;;;2.92;100.00
13015;BME280;6573;57.696;11.950;2022-11-20T10:59:18;100380.59;;;2.84;100.00
13015;BME280;6573;57.696;11.950;2022-11-20T11:01:51;100386.25;;;3.05;100.00
13015;BME280;6573;57.696;11.950;2022-11-20T11:04:33;100390.56;;;3.04;100.00
13015;BME280;6573;57.696;11.950;2022-11-20T11:07:10;100372.16;;;2.94;100.00
13015;BME280;6573;57.696;11.950;2022-11-20T11:09:46;100386.34;;;3.11;100.00
13015;BME280;6573;57.696;11.950;2022-11-20T11:12:15;100381.22;;;3.14;100.00
13015;BME280;6573;57.696;11.950;2022-11-20T11:14:46;100395.03;;;3.10;100.00
13015;BME280;6573;57.696;11.950;2022-11-20T11:17:26;100389.63;;;3.01;100.00
13015;BME280;6573;57.696;11.950;2022-11-20T11:20:14;100400.00;;;3.01;100.00
13015;BME280;6573;57.696;11.950;2022-11-20T11:22:48;100363.47;;;2.92;100.00
13015;BME280;6573;57.696;11.950;2022-11-20T11:25:23;100375.97;;;3.11;100.00
13015;BME280;6573;57.696;11.950;2022-11-20T11:27:56;100387.91;;;3.03;100.00
13015;BME280;6573;57.696;11.950;2022-11-20T11:30:27;100356.63;;;2.97;100.00
13015;BME280;6573;57.696;11.950;2022-11-20T11:33:21;100389.84;;;3.13;100.00
13015;BME280;6573;57.696;11.950;2022-11-20T11:35:53;100388.00;;;3.06;100.00
13015;BME280;6573;57.696;11.950;2022-11-20T11:38:29;100375.88;;;3.05;100.00
13015;BME280;6573;57.696;11.950;2022-11-20T11:40:58;100385.38;;;3.06;100.00
13015;BME280;6573;57.696;11.950;2022-11-20T11:43:29;100379.22;;;3.01;100.00
13015;BME280;6573;57.696;11.950;2022-11-20T11:46:29;100370.22;;;2.84;100.00
13015;BME280;6573;57.696;11.950;2022-11-20T11:49:00;100382.63;;;2.97;100.00
13015;BME280;6573;57.696;11.950;2022-11-20T11:51:34;100362.75;;;3.00;100.00
13015;BME280;6573;57.696;11.950;2022-11-20T11:54:13;100358.19;;;2.89;100.00
13015;BME280;6573;57.696;11.950;2022-11-20T11:56:43;100354.06;;;2.98;100.00
13015;BME280;6573;57.696;11.950;2022-11-20T11:59:18;100348.03;;;3.01;100.00
13015;BME280;6573;57.696;11.950;2022-11-20T12:01:55;100345.34;;;2.95;100.00
13015;BME280;6573;57.696;11.950;2022-11-20T12:04:38;100355.91;;;3.04;100.00
13015;BME280;6573;57.696;11.950;2022-11-20T12:07:12;100346.34;;;3.03;100.00
13015;BME280;6573;57.696;11.950;2022-11-20T12:10:04;100346.41;;;3.06;100.00
13015;BME280;6573;57.696;11.950;2022-11-20T12:12:36;100329.03;;;3.02;100.00
13015;BME280;6573;57.696;11.950;2022-11-20T12:15:10;100323.19;;;3.13;100.00
13015;BME280;6573;57.696;11.950;2022-11-20T12:17:39;100303.94;;;3.02;100.00
13015;BME280;6573;57.696;11.950;2022-11-20T12:20:13;100315.31;;;3.09;100.00
13015;BME280;6573;57.696;11.950;2022-11-20T12:22:48;100319.63;;;3.08;100.00
13015;BME280;6573;57.696;11.950;2022-11-20T12:25:23;100305.81;;;3.11;100.00
13015;BME280;6573;57.696;11.950;2022-11-20T12:28:24;100303.06;;;3.02;100.00
13015;BME280;6573;57.696;11.950;2022-11-20T12:31:10;100292.72;;;3.05;100.00
13015;BME280;6573;57.696;11.950;2022-11-20T12:33:55;100284.88;;;3.02;100.00
13015;BME280;6573;57.696;11.950;2022-11-20T12:36:37;100263.19;;;3.00;100.00
13015;BME280;6573;57.696;11.950;2022-11-20T12:39:31;100249.09;;;2.89;100.00
13015;BME280;6573;57.696;11.950;2022-11-20T12:42:20;100267.44;;;2.96;100.00
13015;BME280;6573;57.696;11.950;2022-11-20T12:45:32;100273.38;;;2.91;100.00
13015;BME280;6573;57.696;11.950;2022-11-20T12:48:19;100272.63;;;2.95;100.00
13015;BME280;6573;57.696;11.950;2022-11-20T12:51:06;100266.56;;;2.96;100.00
13015;BME280;6573;57.696;11.950;2022-11-20T12:53:48;100263.06;;;2.94;100.00
13015;BME280;6573;57.696;11.950;2022-11-20T12:56:32;100249.22;;;2.95;100.00
13015;BME280;6573;57.696;11.950;2022-11-20T12:59:21;100258.75;;;2.94;100.00
13015;BME280;6573;57.696;11.950;2022-11-20T13:01:55;100244.03;;;2.95;100.00
13015;BME280;6573;57.696;11.950;2022-11-20T13:04:43;100235.31;;;2.93;100.00
13015;BME280;6573;57.696;11.950;2022-11-20T13:07:19;100254.59;;;3.04;100.00
13015;BME280;6573;57.696;11.950;2022-11-20T13:09:50;100262.22;;;2.95;100.00
13015;BME280;6573;57.696;11.950;2022-11-20T13:12:23;100251.75;;;2.92;100.00
13015;BME280;6573;57.696;11.950;2022-11-20T13:14:58;100251.16;;;3.05;100.00
13015;BME280;6573;57.696;11.950;2022-11-20T13:17:36;100252.00;;;3.04;100.00
13015;BME280;6573;57.696;11.950;2022-11-20T13:20:12;100246.78;;;3.04;100.00
13015;BME280;6573;57.696;11.950;2022-11-20T13:22:45;100242.28;;;2.94;100.00